WetterOnline ( http://www.wetteronline.de )

Wetter aktuell Cuxhaven

Aktuelles Wetter: Cuxhaven (12m)

6-stündlich | Neueste Meldungen
Ortszeit Temperatur Wetter
Mi, 21.11. 13:00 3.0° C bewölkt
Mi, 21.11. 7:00 3.1° C bedeckt
Mi, 21.11. 1:00 3.8° C bedeckt
Di, 20.11. 19:00 4.1° C bewölkt
Di, 20.11. 13:00 4.9° C bedeckt
Di, 20.11. 7:00 3.9° C wolkig
Di, 20.11. 1:00 5.7° C bedeckt
Mo, 19.11. 19:00 6.0° C wolkig
Ortszeit Temperatur Wetter
Mi, 21.11. 14:30 3.0° C bedeckt
Mi, 21.11. 14:10 3.0° C bedeckt
Mi, 21.11. 14:00 2.8° C bedeckt
Mi, 21.11. 13:50 2.8° C bedeckt
Mi, 21.11. 13:40 2.8° C bedeckt
Mi, 21.11. 13:30 3.0° C bedeckt
Mi, 21.11. 13:00 3.0° C bewölkt
Mi, 21.11. 12:30 2.6° C bedeckt
Mi, 21.11. 12:00 2.5° C bewölkt
Mi, 21.11. 11:30 2.5° C bewölkt
Ortszeit Relative Feuchte Sichtweite
Mi, 21.11. 13:00 79% 7 km
Mi, 21.11. 7:00 78% 8 km
Mi, 21.11. 1:00 76% 12 km
Di, 20.11. 19:00 77% 16 km
Di, 20.11. 13:00 75% 23 km
Di, 20.11. 7:00 75% 22 km
Di, 20.11. 1:00 75% 50 km
Mo, 19.11. 19:00 77% 70 km
Ortszeit Relative Feuchte Sichtweite
Mi, 21.11. 14:30 78% 8 km
Mi, 21.11. 14:10 78% -
Mi, 21.11. 14:00 78% 7 km
Mi, 21.11. 13:50 78% -
Mi, 21.11. 13:40 78% -
Mi, 21.11. 13:30 79% 7 km
Mi, 21.11. 13:00 79% 7 km
Mi, 21.11. 12:30 78% 8 km
Mi, 21.11. 12:00 79% 7 km
Mi, 21.11. 11:30 80% 7 km
Ortszeit Niederschlagsmenge Niederschlagsart
Mi, 21.11. 13:00 0.0 l/m2 in 6 Std. -
Mi, 21.11. 7:00 0.0 l/m2 in 12 Std. -
Mi, 21.11. 1:00 0.0 l/m2 in 6 Std. -
Di, 20.11. 19:00 0.0 l/m2 in 12 Std. -
Di, 20.11. 13:00 0.0 l/m2 in 6 Std. -
Di, 20.11. 7:00 0.0 l/m2 in 12 Std. -
Di, 20.11. 1:00 0.0 l/m2 in 6 Std. -
Mo, 19.11. 19:00 0.1 l/m2 in 12 Std. -
Ortszeit Niederschlagsmenge Niederschlagsart
Mi, 21.11. 14:30 0.0 l/m2 in 1 Std. -
Mi, 21.11. 14:10 keine Meldung -
Mi, 21.11. 14:00 0.0 l/m2 in 1 Std. -
Mi, 21.11. 13:50 keine Meldung -
Mi, 21.11. 13:40 keine Meldung -
Mi, 21.11. 13:30 0.0 l/m2 in 1 Std. -
Mi, 21.11. 13:00 0.0 l/m2 in 1 Std. -
Mi, 21.11. 12:30 0.0 l/m2 in 1 Std. -
Mi, 21.11. 12:00 0.0 l/m2 in 1 Std. -
Mi, 21.11. 11:30 0.0 l/m2 in 1 Std. -
Ortszeit Stärke Spitze Richtung
km/h Bft. km/h Grad Sektor
Mi, 21.11. 13:00 36 5 54 100° O
Mi, 21.11. 7:00 33 5 67 120° SO
Mi, 21.11. 1:00 46 6 72 110° O
Di, 20.11. 19:00 54 7 79 110° O
Di, 20.11. 13:00 54 7 83 100° O
Di, 20.11. 7:00 61 7 76 90° O
Di, 20.11. 1:00 44 6 59 90° O
Mo, 19.11. 19:00 41 6 56 90° O
Ortszeit Stärke Spitze Richtung
km/h Bft. km/h Grad Sektor
Mi, 21.11. 14:30 36 5 50 110° O
Mi, 21.11. 14:10 37 5 - 100° O
Mi, 21.11. 14:00 39 6 54 100° O
Mi, 21.11. 13:50 39 6 - 100° O
Mi, 21.11. 13:40 40 6 - 100° O
Mi, 21.11. 13:30 35 5 52 110° O
Mi, 21.11. 13:00 36 5 54 100° O
Mi, 21.11. 12:30 39 6 56 100° O
Mi, 21.11. 12:00 41 6 54 100° O
Mi, 21.11. 11:30 40 6 54 100° O
Ortszeit Untergrenze Bedeckung Gattung
total tief tief mittel hoch
Mi, 21.11. 13:00 480 m 8/8 7/8 - - -
Mi, 21.11. 7:00 510 m 8/8 8/8 - - -
Mi, 21.11. 1:00 690 m 8/8 8/8 - - -
Di, 20.11. 19:00 660 m 8/8 6/8 - - -
Di, 20.11. 13:00 810 m 8/8 8/8 - - -
Di, 20.11. 7:00 720 m 6/8 6/8 - - -
Di, 20.11. 1:00 750 m 8/8 8/8 - - -
Mo, 19.11. 19:00 1800 m 6/8 6/8 - - -
Ortszeit Bedeckungsgrad in Achtel und Wolkenuntergrenze
Mi, 21.11. 14:30 7(510m) 7(2100m) 8(2700m)
Mi, 21.11. 14:10 7(510m) 7(2100m) 8(2700m)
Mi, 21.11. 14:00 7(510m) 7(1800m) 8(2700m)
Mi, 21.11. 13:50 7(510m) 7(1800m) 8(2700m)
Mi, 21.11. 13:40 7(510m) 8(1800m) 8(2700m)
Mi, 21.11. 13:30 7(510m) 8(1800m)
Mi, 21.11. 13:00 7(480m) 7(1800m) 8(3000m)
Mi, 21.11. 12:30 7(480m) 7(2100m) 8(2700m)
Mi, 21.11. 12:00 5(480m) 7(2100m) 8(3000m)
Mi, 21.11. 11:30 4(450m) 7(2100m) 8(3000m)
Ortszeit Luftdruck NN (hPa) Tendenz (hPa in 3 Std.)
Mi, 21.11. 13:00 1022 + 0,8
Mi, 21.11. 7:00 1020 + 1,4
Mi, 21.11. 1:00 1018 + 0,9
Di, 20.11. 19:00 1016 - 0,2
Di, 20.11. 13:00 1017 - 1,9
Di, 20.11. 7:00 1020 - 1,3
Di, 20.11. 1:00 1023 - 0,8
Mo, 19.11. 19:00 1024 0,0
Ortszeit Luftdruck NN (hPa) Tendenz (hPa in 3 Std.)
Mi, 21.11. 14:30 1022 + 0,3
Mi, 21.11. 14:10 1022 keine Meldung
Mi, 21.11. 14:00 1022 + 0,3
Mi, 21.11. 13:50 1022 keine Meldung
Mi, 21.11. 13:40 1022 keine Meldung
Mi, 21.11. 13:30 1022 + 0,5
Mi, 21.11. 13:00 1022 + 0,8
Mi, 21.11. 12:30 1022 + 1,0
Mi, 21.11. 12:00 1022 + 1,5
Mi, 21.11. 11:30 1022 + 1,6
Ortszeit Schneehöhe (cm)
Mi, 21.11. 13:00 0
Mi, 21.11. 7:00 0
Mi, 21.11. 1:00 0
Di, 20.11. 19:00 0
Di, 20.11. 13:00 0
Di, 20.11. 7:00 0
Di, 20.11. 1:00 0
Mo, 19.11. 19:00 0
Ortszeit Schneehöhe (cm)
Mi, 21.11. 14:30 0
Mi, 21.11. 14:10 0
Mi, 21.11. 14:00 0
Mi, 21.11. 13:50 0
Mi, 21.11. 13:40 0
Mi, 21.11. 13:30 0
Mi, 21.11. 13:00 0
Mi, 21.11. 12:30 0
Mi, 21.11. 12:00 0
Mi, 21.11. 11:30 0
Link zu dieser Seite / Seite empfehlen

Das Wetter in ...